Time;durP1;ratioP1;P1;durP2;ratioP2;P2;SDS_P1;SDS_P2;PMS_P1;PMS_P2;Temp;Humidity;BMP_temperature;BMP_pressure;BME280_temperature;BME280_humidity;BME280_pressure;Samples;Min_cycle;Max_cycle;Signal;HPM_P1;HPM_P2
2021/08/31 08:21:38;234986.00;0.78;406.13;0.00;0.00;0.62;;;;;20.20;1.00;;;;;;2575365;55;2114;-86
2021/08/31 08:24:18;132622904.00;442.08;94522456.00;0.00;0.00;0.62;;;;;20.30;1.00;;;;;;2580920;55;1757;-89
2021/08/31 08:26:52;321563.00;1.07;554.98;0.00;0.00;0.62;;;;;20.50;1.00;;;;;;2583259;55;1935;-89
2021/08/31 08:29:32;;;;;;;;;;;;;;;;;;;;;
2021/08/31 08:32:39;190671.00;0.64;329.86;0.00;0.00;0.62;;;;;20.90;1.00;;;;;;2580867;55;1314;-90
2021/08/31 08:35:10;600038.00;2.00;1034.29;77213.00;0.26;134.22;;;;;21.70;1.00;;;;;;2553398;56;1616;-90
2021/08/31 08:37:47;420016.00;1.40;724.22;0.00;0.00;0.62;;;;;22.20;1.00;;;;;;2557035;56;1428;-92
2021/08/31 08:40:20;279233.00;0.93;482.22;0.00;0.00;0.62;;;;;23.20;1.00;;;;;;2557043;56;1540;-91
2021/08/31 08:45:55;210937.00;0.70;364.75;0.00;0.00;0.62;;;;;23.10;1.00;;;;;;2554116;56;1903;-90
2021/08/31 08:48:24;460619.00;1.54;794.05;28133.00;0.09;49.35;;;;;23.30;1.00;;;;;;2557122;56;1139;-91
2021/08/31 08:51:14;337387.00;1.12;582.18;0.00;0.00;0.62;;;;;23.60;1.00;;;;;;2557024;56;1741;-90
2021/08/31 08:54:04;301406.00;1.00;520.34;0.00;0.00;0.62;;;;;23.20;1.00;;;;;;2557032;56;1421;-91
2021/08/31 08:59:53;751275.00;2.50;1296.27;104384.00;0.35;181.14;;;;;23.70;1.00;;;;;;2554694;56;1695;-90
2021/08/31 09:02:46;;;;;;;;;;;;;;;;;;;;;
2021/08/31 09:05:31;312150.00;1.04;538.81;0.00;0.00;0.62;;;;;24.20;1.00;;;;;;2557009;56;1327;-88
2021/08/31 09:11:16;289738.00;0.97;500.28;71852.00;0.24;124.96;;;;;24.20;1.00;;;;;;2550147;56;1337;-89
2021/08/31 09:16:34;1752560.00;5.84;3128.01;260392.00;0.87;449.82;;;;;24.20;1.00;;;;;;2565041;56;1012;-90
2021/08/31 09:19:03;1716508.00;5.72;3057.54;218430.00;0.73;377.64;;;;;23.90;1.00;;;;;;2567216;55;1698;-89
2021/08/31 09:21:31;1509766.00;5.03;2661.51;162325.00;0.54;281.05;;;;;23.70;1.00;;;;;;2567259;55;1383;-89
2021/08/31 09:24:00;423835.00;1.41;730.78;79586.00;0.27;138.32;;;;;23.60;1.00;;;;;;2567270;55;1039;-90
2021/08/31 09:26:37;391525.00;1.31;675.24;46169.00;0.15;80.56;;;;;23.20;1.00;;;;;;2565119;56;1957;-90
2021/08/31 09:29:33;364498.00;1.21;628.78;0.00;0.00;0.62;;;;;22.50;1.00;;;;;;2567225;55;1522;-89
2021/08/31 09:32:25;;;;;;;;;;;;;;;;;;;;;
2021/08/31 09:35:03;;;;;;;;;;;;;;;;;;;;;
2021/08/31 09:43:54;1051980.00;3.51;1824.76;143299.00;0.48;248.26;;;;;22.90;1.00;;;;;;2544737;56;905;-88
2021/08/31 09:46:23;1732732.00;5.78;3089.20;206251.00;0.69;356.68;;;;;22.80;1.00;;;;;;2546719;56;1948;-89
2021/08/31 09:52:20;153972.00;0.51;266.65;0.00;0.00;0.62;;;;;23.10;1.00;;;;;;2519575;57;1325;-88
2021/08/31 09:54:51;341629.00;1.14;589.47;31702.00;0.11;55.53;;;;;23.40;1.00;;;;;;2531150;56;1092;-88
2021/08/31 10:01:00;612312.00;2.04;1055.48;0.00;0.00;0.62;;;;;22.50;1.00;;;;;;2549500;56;1374;-90
2021/08/31 10:03:52;414994.00;1.38;715.58;0.00;0.00;0.62;;;;;22.50;1.00;;;;;;2572318;55;1471;-89
2021/08/31 10:06:28;262742.00;0.88;453.86;0.00;0.00;0.62;;;;;22.80;1.00;;;;;;2572250;55;1957;-89
2021/08/31 10:09:23;986371.00;3.29;1708.35;132129.00;0.44;229.00;;;;;22.50;1.00;;;;;;2572432;55;1008;-89
2021/08/31 10:11:53;511700.00;1.71;881.97;0.00;0.00;0.62;;;;;22.90;1.00;;;;;;2546610;56;1548;-89
2021/08/31 10:14:59;506252.00;1.69;872.59;31550.00;0.11;55.27;;;;;23.70;1.00;;;;;;2546765;56;1532;-89
2021/08/31 10:17:30;1013142.00;3.38;1755.76;87284.00;0.29;151.62;;;;;23.90;1.00;;;;;;2527137;56;1537;-90
2021/08/31 10:20:04;435824.00;1.45;751.40;0.00;0.00;0.62;;;;;24.00;1.00;;;;;;2547761;56;1526;-90
2021/08/31 10:22:43;340075.00;1.13;586.80;0.00;0.00;0.62;;;;;24.00;1.00;;;;;;2561901;56;1656;-89
2021/08/31 10:25:37;435821.00;1.45;751.40;22742.00;0.08;40.02;;;;;23.80;1.00;;;;;;2559775;56;981;-89
2021/08/31 10:28:26;280222.00;0.93;483.92;0.00;0.00;0.62;;;;;23.70;1.00;;;;;;2534540;56;1957;-89
2021/08/31 10:31:00;502530.00;1.68;866.18;82678.00;0.28;143.66;;;;;22.70;1.00;;;;;;2536874;56;1435;-88
2021/08/31 10:33:32;337768.00;1.13;582.84;0.00;0.00;0.62;;;;;22.00;1.00;;;;;;2536735;56;2002;-87
2021/08/31 10:36:01;417015.00;1.39;719.06;0.00;0.00;0.62;;;;;21.70;1.00;;;;;;2536812;56;1096;-89
2021/08/31 10:38:50;487709.00;1.63;840.67;35851.00;0.12;62.71;;;;;21.60;1.00;;;;;;2536576;56;1525;-88
2021/08/31 10:41:48;801688.00;2.67;1384.07;3399.00;0.01;6.51;;;;;21.30;1.00;;;;;;2536691;56;1410;-89
2021/08/31 10:44:43;789900.00;2.63;1363.51;4118.00;0.01;7.76;;;;;21.40;1.00;;;;;;2534677;56;1062;-88
2021/08/31 10:47:30;403397.00;1.34;695.65;0.00;0.00;0.62;;;;;21.10;1.00;;;;;;2536756;56;1905;-88
2021/08/31 10:50:21;1906142.00;6.35;3433.35;310156.00;1.03;535.38;;;;;20.60;1.00;;;;;;2561192;56;1579;-88
2021/08/31 10:53:12;2030341.00;6.77;3686.81;267920.00;0.89;462.77;;;;;20.20;1.00;;;;;;2562101;56;1787;-89
2021/08/31 10:55:58;1291211.00;4.30;2256.03;79026.00;0.26;137.35;;;;;20.40;1.00;;;;;;2559972;56;978;-88
2021/08/31 10:58:48;1300390.00;4.33;2272.82;115891.00;0.39;200.99;;;;;20.40;1.00;;;;;;2562188;56;953;-88
2021/08/31 11:01:20;141974848.00;473.25;115985520.00;196535.00;0.66;339.96;;;;;20.30;1.00;;;;;;2559732;56;1458;-88
2021/08/31 11:03:52;1309829.00;4.37;2290.10;213968.00;0.71;369.96;;;;;20.00;1.00;;;;;;2559977;56;1058;-89
2021/08/31 11:06:42;747950.00;2.49;1290.49;12685.00;0.04;22.60;;;;;20.20;1.00;;;;;;2583306;55;1936;-89
2021/08/31 11:09:22;1614692.00;5.38;2860.85;113334.00;0.38;196.58;;;;;20.70;1.00;;;;;;2582941;55;1025;-89
2021/08/31 11:12:16;1430563.00;4.77;2513.13;257993.00;0.86;445.70;;;;;20.60;1.00;;;;;;2581021;55;1432;-89
2021/08/31 11:14:50;757336.00;2.52;1306.82;113512.00;0.38;196.89;;;;;20.30;1.00;;;;;;2572126;55;1635;-88
2021/08/31 11:17:35;1131848.00;3.77;1967.47;63063.00;0.21;109.77;;;;;20.10;1.00;;;;;;2572232;55;1649;-89
2021/08/31 11:20:19;306699.00;1.02;529.44;0.00;0.00;0.62;;;;;20.40;1.00;;;;;;2572422;55;1009;-88
2021/08/31 11:22:49;1278681.00;4.26;2233.14;98237.00;0.33;170.53;;;;;20.60;1.00;;;;;;2571546;55;1123;-89
2021/08/31 11:25:28;1407854.00;4.69;2470.90;172645.00;0.58;298.82;;;;;20.80;1.00;;;;;;2577332;55;1845;-89
2021/08/31 11:28:00;1543102.00;5.14;2724.49;74770.00;0.25;130.00;;;;;21.10;1.00;;;;;;2577562;55;1902;-89
2021/08/31 11:30:28;1351636.00;4.51;2366.92;96936.00;0.32;168.28;;;;;21.00;1.00;;;;;;2575216;55;1348;-88
2021/08/31 11:33:17;1016517.00;3.39;1761.75;198007.00;0.66;342.49;;;;;20.80;1.00;;;;;;2569232;55;1006;-89
2021/08/31 11:35:53;2018957.00;6.73;3663.32;269915.00;0.90;466.20;;;;;20.60;1.00;;;;;;2580708;55;1605;-88
2021/08/31 11:38:30;1217283.00;4.06;2121.50;69899.00;0.23;121.59;;;;;20.70;1.00;;;;;;2580946;55;1187;-89
2021/08/31 11:41:19;777358.00;2.59;1341.66;8855.00;0.03;15.97;;;;;21.00;1.00;;;;;;2580933;55;1247;-89
2021/08/31 11:43:50;844747.00;2.82;1459.28;73117.00;0.24;127.15;;;;;21.30;1.00;;;;;;2577446;55;951;-89
2021/08/31 11:46:22;1165573.00;3.89;2028.10;140049.00;0.47;242.66;;;;;21.60;1.00;;;;;;2575142;55;1785;-88
2021/08/31 11:48:49;1334171.00;4.45;2334.78;181866.00;0.61;314.70;;;;;21.50;1.00;;;;;;2575137;55;1970;-88
2021/08/31 11:51:26;1233416.00;4.11;2150.75;107840.00;0.36;187.10;;;;;21.10;1.00;;;;;;2577376;55;1751;-88
2021/08/31 11:54:04;525401.00;1.75;905.57;10171.00;0.03;18.25;;;;;21.00;1.00;;;;;;2574891;55;1452;-89
2021/08/31 11:56:33;1316600.00;4.39;2302.52;172303.00;0.57;298.23;;;;;21.30;1.00;;;;;;2577548;55;976;-89
2021/08/31 11:59:00;460721.00;1.54;794.23;62489.00;0.21;108.78;;;;;21.60;1.00;;;;;;2577321;55;981;-90
2021/08/31 12:01:28;441486.00;1.47;761.14;48354.00;0.16;84.34;;;;;21.60;1.00;;;;;;2577057;55;1388;-89
2021/08/31 12:04:10;510919.00;1.70;880.62;73414.00;0.24;127.66;;;;;20.90;1.00;;;;;;2583232;55;927;-88
2021/08/31 12:06:40;132629928.00;442.10;94537480.00;69902.00;0.23;121.59;;;;;20.80;1.00;;;;;;2580836;55;1965;-87
2021/08/31 12:09:08;470353.00;1.57;810.80;95463.00;0.32;165.74;;;;;20.60;1.00;;;;;;2583067;55;916;-88
2021/08/31 12:11:36;281890.00;0.94;486.79;0.00;0.00;0.62;;;;;20.70;1.00;;;;;;2581063;55;1248;-88
2021/08/31 12:14:03;263985.00;0.88;456.00;0.00;0.00;0.62;;;;;20.80;1.00;;;;;;2581282;55;1112;-88
2021/08/31 12:16:37;340449.00;1.13;587.45;0.00;0.00;0.62;;;;;21.00;1.00;;;;;;2581011;55;966;-88
2021/08/31 12:19:16;505180.00;1.68;870.74;0.00;0.00;0.62;;;;;21.00;1.00;;;;;;2581222;55;1054;-88
2021/08/31 12:21:44;209248.00;0.70;361.84;0.00;0.00;0.62;;;;;20.70;1.00;;;;;;2583398;55;1393;-89
2021/08/31 12:24:14;351952.00;1.17;607.22;0.00;0.00;0.62;;;;;20.70;1.00;;;;;;2583200;55;990;-88
2021/08/31 12:26:44;389317.00;1.30;671.44;0.00;0.00;0.62;;;;;20.50;1.00;;;;;;2583226;55;1910;-89
2021/08/31 12:29:13;625264.00;2.08;1077.86;74556.00;0.25;129.63;;;;;20.50;1.00;;;;;;2583420;55;930;-89
2021/08/31 12:31:43;268914.00;0.90;464.48;0.00;0.00;0.62;;;;;21.10;1.00;;;;;;2583075;55;1671;-89
2021/08/31 12:34:31;502601.00;1.68;866.30;0.00;0.00;0.62;;;;;21.50;1.00;;;;;;2583509;55;938;-89
2021/08/31 12:37:00;294128.00;0.98;507.83;0.00;0.00;0.62;;;;;21.50;1.00;;;;;;2580985;55;1029;-89
2021/08/31 12:39:30;242706.00;0.81;419.41;0.00;0.00;0.62;;;;;21.30;1.00;;;;;;2583214;55;991;-89
2021/08/31 12:41:59;512430.00;1.71;883.23;0.00;0.00;0.62;;;;;21.10;1.00;;;;;;2583370;55;1329;-88
2021/08/31 12:44:26;280828.00;0.94;484.96;0.00;0.00;0.62;;;;;20.90;1.00;;;;;;2580692;55;1570;-89
2021/08/31 12:47:12;145022.00;0.48;251.23;0.00;0.00;0.62;;;;;20.80;1.00;;;;;;2580419;55;1951;-89
2021/08/31 12:49:42;258673.00;0.86;446.87;0.00;0.00;0.62;;;;;21.10;1.00;;;;;;2581136;55;1097;-89
2021/08/31 12:52:17;481188.00;1.60;829.44;31286.00;0.10;54.81;;;;;21.40;1.00;;;;;;2583359;55;1336;-88
2021/08/31 12:54:44;126186144.00;420.62;81404952.00;120875.00;0.40;209.59;;;;;21.20;1.00;;;;;;2583254;55;1132;-90
2021/08/31 12:57:12;781789.00;2.61;1349.38;27894.00;0.09;48.94;;;;;21.70;1.00;;;;;;2583408;55;979;-89
2021/08/31 12:59:42;342842.00;1.14;591.56;0.00;0.00;0.62;;;;;22.00;1.00;;;;;;2583292;55;904;-89
2021/08/31 13:02:23;;;;;;;;;;;;;;;;;;;;;
2021/08/31 13:05:11;652828.00;2.18;1125.53;0.00;0.00;0.62;;;;;21.80;1.00;;;;;;2551724;56;1552;-89
2021/08/31 13:07:38;410401.00;1.37;707.69;0.00;0.00;0.62;;;;;22.20;1.00;;;;;;2551489;56;1946;-88
2021/08/31 13:10:20;286190.00;0.95;494.18;0.00;0.00;0.62;;;;;21.90;1.00;;;;;;2549670;56;1108;-88
2021/08/31 13:12:49;285700.00;0.95;493.34;0.00;0.00;0.62;;;;;21.90;1.00;;;;;;2549810;56;1133;-88
2021/08/31 13:15:32;265835.00;0.89;459.18;0.00;0.00;0.62;;;;;22.70;1.00;;;;;;2549652;56;1111;-89
2021/08/31 13:18:36;497265.00;1.66;857.12;0.00;0.00;0.62;;;;;22.70;1.00;;;;;;2552003;56;1693;-89
2021/08/31 13:21:05;363634.00;1.21;627.29;0.00;0.00;0.62;;;;;22.40;1.00;;;;;;2549607;56;1599;-90
2021/08/31 13:23:32;393166.00;1.31;678.06;0.00;0.00;0.62;;;;;22.30;1.00;;;;;;2576735;55;1813;-89
2021/08/31 13:26:08;336660.00;1.12;580.93;0.00;0.00;0.62;;;;;22.60;1.00;;;;;;2583332;55;914;-90
2021/08/31 13:28:39;408481.00;1.36;704.39;0.00;0.00;0.62;;;;;22.60;1.00;;;;;;2581095;55;1894;-88
2021/08/31 13:31:06;242843.00;0.81;419.64;0.00;0.00;0.62;;;;;22.80;1.00;;;;;;2580973;55;1231;-88
2021/08/31 13:33:45;476743.00;1.59;821.79;29558.00;0.10;51.82;;;;;22.30;1.00;;;;;;2581125;55;1113;-88
2021/08/31 13:36:12;357212.00;1.19;616.26;0.00;0.00;0.62;;;;;22.50;1.00;;;;;;2583375;55;1444;-89
2021/08/31 13:38:44;193497.00;0.64;334.73;0.00;0.00;0.62;;;;;22.20;1.00;;;;;;2581166;55;968;-89
2021/08/31 13:41:13;284336.00;0.95;490.99;0.00;0.00;0.62;;;;;22.30;1.00;;;;;;2583310;55;1383;-89
2021/08/31 13:43:41;397930.00;1.33;686.25;0.00;0.00;0.62;;;;;22.80;1.00;;;;;;2583357;55;963;-90
2021/08/31 13:46:11;161053.00;0.54;278.85;0.00;0.00;0.62;;;;;23.20;1.00;;;;;;2581143;55;1094;-90
2021/08/31 13:48:39;474363.00;1.58;817.70;0.00;0.00;0.62;;;;;23.10;1.00;;;;;;2583067;55;1949;-89
2021/08/31 13:51:18;390019.00;1.30;672.65;58694.00;0.20;102.22;;;;;23.30;1.00;;;;;;2583230;55;1366;-90
2021/08/31 13:53:59;803351.00;2.68;1386.97;20091.00;0.07;35.43;;;;;23.40;1.00;;;;;;2583377;55;900;-90
2021/08/31 13:56:45;685661.00;2.29;1182.38;18570.00;0.06;32.79;;;;;23.40;1.00;;;;;;2583403;55;929;-89
2021/08/31 13:59:17;487133.00;1.62;839.67;0.00;0.00;0.62;;;;;22.90;1.00;;;;;;2581121;55;1081;-89
2021/08/31 14:01:56;353937.00;1.18;610.63;0.00;0.00;0.62;;;;;23.00;1.00;;;;;;2581082;55;1403;-89
2021/08/31 14:04:23;166984.00;0.56;289.07;0.00;0.00;0.62;;;;;22.90;1.00;;;;;;2581194;55;1047;-89
2021/08/31 14:06:58;563140.00;1.88;970.62;34881.00;0.12;61.03;;;;;22.30;1.00;;;;;;2583269;55;921;-88
2021/08/31 14:09:25;373707.00;1.25;644.61;78505.00;0.26;136.45;;;;;22.30;1.00;;;;;;2583295;55;1906;-89
2021/08/31 14:11:52;398853.00;1.33;687.83;0.00;0.00;0.62;;;;;22.10;1.00;;;;;;2583091;55;1515;-89
2021/08/31 14:14:30;209066.00;0.70;361.53;0.00;0.00;0.62;;;;;22.20;1.00;;;;;;2583101;55;1676;-90
2021/08/31 14:16:58;303943.00;1.01;524.70;0.00;0.00;0.62;;;;;23.00;1.00;;;;;;2583251;55;1426;-90
2021/08/31 14:19:37;270429.00;0.90;467.08;0.00;0.00;0.62;;;;;23.20;1.00;;;;;;2581005;55;983;-89
2021/08/31 14:22:04;234259.00;0.78;404.88;0.00;0.00;0.62;;;;;22.90;1.00;;;;;;2580040;55;1602;-89
2021/08/31 14:24:31;261552.00;0.87;451.82;0.00;0.00;0.62;;;;;22.90;1.00;;;;;;2583208;55;1624;-90
2021/08/31 14:27:02;311663.00;1.04;537.97;0.00;0.00;0.62;;;;;22.60;1.00;;;;;;2583390;55;934;-89
2021/08/31 14:29:30;252692.00;0.84;436.58;0.00;0.00;0.62;;;;;22.70;1.00;;;;;;2583278;55;1914;-89
2021/08/31 14:31:57;117411.00;0.39;203.62;0.00;0.00;0.62;;;;;22.40;1.00;;;;;;2583501;55;1304;-88
2021/08/31 14:34:26;512117.00;1.71;882.69;0.00;0.00;0.62;;;;;21.80;1.00;;;;;;2583313;55;1086;-89
2021/08/31 14:36:53;379540.00;1.27;654.63;0.00;0.00;0.62;;;;;21.50;1.00;;;;;;2583283;55;1408;-89
2021/08/31 14:39:20;300697.00;1.00;519.12;0.00;0.00;0.62;;;;;21.50;1.00;;;;;;2583348;55;941;-89
2021/08/31 14:41:47;560244.00;1.87;965.62;44014.00;0.15;76.83;;;;;21.40;1.00;;;;;;2581174;55;1347;-90
2021/08/31 14:44:16;816095.00;2.72;1409.21;36878.00;0.12;64.49;;;;;21.20;1.00;;;;;;2581130;55;1025;-89
2021/08/31 14:46:52;851621.00;2.84;1471.30;55488.00;0.18;96.68;;;;;21.40;1.00;;;;;;2583365;55;1009;-89
2021/08/31 14:49:19;509537.00;1.70;878.24;12760.00;0.04;22.73;;;;;21.30;1.00;;;;;;2583261;55;1905;-89
2021/08/31 14:51:46;405676.00;1.35;699.56;40880.00;0.14;71.41;;;;;21.30;1.00;;;;;;2583233;55;1630;-87
2021/08/31 14:54:13;833424.00;2.78;1439.48;35389.00;0.12;61.91;;;;;21.30;1.00;;;;;;2583356;55;920;-87
2021/08/31 14:56:40;647368.00;2.16;1116.08;62870.00;0.21;109.44;;;;;21.20;1.00;;;;;;2583324;55;922;-88
2021/08/31 14:59:07;615624.00;2.05;1061.21;7121.00;0.02;12.96;;;;;21.60;1.00;;;;;;2580933;55;983;-87
2021/08/31 15:01:37;645334.00;2.15;1112.56;20610.00;0.07;36.33;;;;;21.90;1.00;;;;;;2583331;55;1343;-87
2021/08/31 15:04:05;554921.00;1.85;956.44;0.00;0.00;0.62;;;;;21.80;1.00;;;;;;2583441;55;1318;-88
2021/08/31 15:06:32;619078.00;2.06;1067.17;40289.00;0.13;70.39;;;;;21.70;1.00;;;;;;2580037;55;1506;-89
2021/08/31 15:09:02;449607.00;1.50;775.11;31214.00;0.10;54.68;;;;;21.50;1.00;;;;;;2578350;55;1956;-88
2021/08/31 15:11:30;619181.00;2.06;1067.35;0.00;0.00;0.62;;;;;21.60;1.00;;;;;;2583251;55;1257;-88
2021/08/31 15:14:02;1235677.00;4.12;2154.86;98220.00;0.33;170.50;;;;;21.60;1.00;;;;;;2581137;55;1018;-88
2021/08/31 15:16:29;1072277.00;3.57;1860.92;17205.00;0.06;30.43;;;;;21.60;1.00;;;;;;2583255;55;921;-88
2021/08/31 15:19:17;2031651.00;6.77;3689.52;144905.00;0.48;251.03;;;;;21.70;1.00;;;;;;2583324;55;910;-88
2021/08/31 15:22:17;1315614.00;4.39;2300.71;106807.00;0.36;185.32;;;;;21.40;1.00;;;;;;2583182;55;1436;-88
2021/08/31 15:24:51;465230.00;1.55;801.98;41994.00;0.14;73.34;;;;;21.10;1.00;;;;;;2561740;56;1122;-88
2021/08/31 15:27:25;355150.00;1.18;612.71;0.00;0.00;0.62;;;;;21.20;1.00;;;;;;2562008;56;981;-88
2021/08/31 15:30:02;291868.00;0.97;503.94;0.00;0.00;0.62;;;;;20.80;1.00;;;;;;2559730;56;2019;-89
2021/08/31 15:32:43;157550.00;0.53;272.82;0.00;0.00;0.62;;;;;20.70;1.00;;;;;;2561957;56;1338;-88
2021/08/31 15:35:14;949455.00;3.16;1643.15;136385.00;0.45;236.34;;;;;20.80;1.00;;;;;;2561924;56;1046;-88
2021/08/31 15:38:50;;;;;;;;;;;;;;;;;;;;;
2021/08/31 15:41:43;986015.00;3.29;1707.72;0.00;0.00;0.62;;;;;20.70;1.00;;;;;;2551682;56;1686;-89
2021/08/31 15:44:30;1406638.00;4.69;2468.64;96188.00;0.32;166.99;;;;;20.70;1.00;;;;;;2549592;56;1590;-88
2021/08/31 15:47:10;2310858.00;7.70;4283.38;235021.00;0.78;406.19;;;;;20.40;1.00;;;;;;2551782;56;1470;-89
2021/08/31 15:49:46;2058812.00;6.86;3745.79;108268.00;0.36;187.84;;;;;20.60;1.00;;;;;;2549710;56;1903;-89
2021/08/31 15:52:52;1287405.00;4.29;2249.07;120121.00;0.40;208.29;;;;;20.70;1.00;;;;;;2549782;56;1443;-89
2021/08/31 15:55:29;1444089.00;4.81;2538.35;166313.00;0.55;287.92;;;;;20.80;1.00;;;;;;2556523;56;1072;-89
2021/08/31 15:57:56;588116.00;1.96;1013.70;40935.00;0.14;71.51;;;;;20.90;1.00;;;;;;2565174;56;1095;-89
2021/08/31 16:00:57;707015.00;2.36;1219.41;22610.00;0.08;39.79;;;;;20.80;1.00;;;;;;2567262;56;1355;-89
2021/08/31 16:03:46;1495842.00;4.99;2635.30;166937.00;0.56;288.99;;;;;20.80;1.00;;;;;;2570496;55;2034;-89
2021/08/31 16:06:15;496549.00;1.66;855.88;0.00;0.00;0.62;;;;;21.20;1.00;;;;;;2583154;55;1596;-89
2021/08/31 16:08:44;449802.00;1.50;775.44;0.00;0.00;0.62;;;;;21.30;1.00;;;;;;2583214;55;1953;-89
2021/08/31 16:11:27;417105.00;1.39;719.21;0.00;0.00;0.62;;;;;21.10;1.00;;;;;;2583298;55;1386;-90
2021/08/31 16:13:57;312627.00;1.04;539.63;0.00;0.00;0.62;;;;;20.80;1.00;;;;;;2583322;55;1644;-89
2021/08/31 16:16:24;594988.00;1.98;1025.57;6170.00;0.02;11.31;;;;;20.90;1.00;;;;;;2583362;55;1002;-89
2021/08/31 16:18:51;1660369.00;5.53;2948.68;217143.00;0.72;375.43;;;;;21.10;1.00;;;;;;2583365;55;1003;-89
2021/08/31 16:21:20;627800.00;2.09;1082.25;74299.00;0.25;129.19;;;;;21.40;1.00;;;;;;2583040;55;1592;-89
2021/08/31 16:23:47;601490.00;2.00;1036.79;74657.00;0.25;129.81;;;;;21.80;1.00;;;;;;2583481;55;915;-91
2021/08/31 16:26:16;415432.00;1.38;716.34;70088.00;0.23;121.91;;;;;21.50;1.00;;;;;;2583401;55;980;-89
2021/08/31 16:28:43;462503.00;1.54;797.29;71958.00;0.24;125.14;;;;;21.00;1.00;;;;;;2583331;55;1958;-89
2021/08/31 16:31:10;494864.00;1.65;852.98;78367.00;0.26;136.22;;;;;20.60;1.00;;;;;;2583371;55;1355;-89
2021/08/31 16:33:39;493863.00;1.65;851.26;79117.00;0.26;137.51;;;;;20.20;1.00;;;;;;2572425;55;946;-90
2021/08/31 16:36:11;264245.00;0.88;456.45;0.00;0.00;0.62;;;;;20.00;1.00;;;;;;2572342;55;1605;-90
2021/08/31 16:38:39;413954.00;1.38;713.80;0.00;0.00;0.62;;;;;20.30;1.00;;;;;;2572545;55;1010;-90
2021/08/31 16:41:08;118986096.00;396.62;68239048.00;68198.00;0.23;118.65;;;;;20.70;1.00;;;;;;2572452;55;1294;-90
2021/08/31 16:43:37;432704.00;1.44;746.04;71597.00;0.24;124.52;;;;;21.00;1.00;;;;;;2570242;55;961;-90
2021/08/31 16:46:09;365726.00;1.22;630.89;0.00;0.00;0.62;;;;;20.90;1.00;;;;;;2572449;55;961;-91
2021/08/31 16:48:45;621303.00;2.07;1071.02;84022.00;0.28;145.98;;;;;20.80;1.00;;;;;;2562111;56;1933;-91
2021/08/31 16:51:13;567276.00;1.89;977.75;73390.00;0.24;127.62;;;;;20.90;1.00;;;;;;2566324;55;1348;-90
2021/08/31 16:53:40;387347.00;1.29;668.05;72650.00;0.24;126.34;;;;;21.00;1.00;;;;;;2577594;55;962;-91
2021/08/31 16:56:07;444480.00;1.48;766.29;342.00;0.00;1.21;;;;;21.30;1.00;;;;;;2575236;55;927;-91
2021/08/31 16:58:38;245493.00;0.82;424.20;0.00;0.00;0.62;;;;;21.60;1.00;;;;;;2577387;55;918;-91
